Time;durP1;ratioP1;P1;durP2;ratioP2;P2;SDS_P1;SDS_P2;PMS_P1;PMS_P2;Temp;Humidity;BMP_temperature;BMP_pressure;BME280_temperature;BME280_humidity;BME280_pressure;Samples;Min_cycle;Max_cycle;Signal;HPM_P1;HPM_P2
2021/11/14 00:00:32;;;;;;;22.83;13.15;;;;;;;;;;5057460;28;20116;-84
2021/11/14 00:03:01;;;;;;;21.92;12.25;;;;;;;;;;5058937;28;20511;-82
2021/11/14 00:05:31;;;;;;;17.88;10.43;;;;;;;;;;5059415;28;20053;-82
2021/11/14 00:07:59;;;;;;;18.98;11.00;;;;;;;;;;5056921;28;20060;-82
2021/11/14 00:10:26;;;;;;;17.80;11.13;;;;;;;;;;5057081;28;20056;-82
2021/11/14 00:12:53;;;;;;;19.75;11.48;;;;;;;;;;5055661;28;20182;-82
2021/11/14 00:15:20;;;;;;;20.15;12.25;;;;;;;;;;5055763;28;20411;-83
2021/11/14 00:17:47;;;;;;;21.08;11.75;;;;;;;;;;5060552;28;20411;-83
2021/11/14 00:20:15;;;;;;;21.45;11.73;;;;;;;;;;5061079;28;20447;-83
2021/11/14 00:22:42;;;;;;;19.40;11.32;;;;;;;;;;5060198;28;20053;-82
2021/11/14 00:25:13;;;;;;;20.90;11.82;;;;;;;;;;5059432;28;20052;-82
2021/11/14 00:27:40;;;;;;;20.08;11.90;;;;;;;;;;5059707;28;20419;-83
2021/11/14 00:30:08;;;;;;;20.38;11.50;;;;;;;;;;5059438;28;20051;-82
2021/11/14 00:32:35;;;;;;;19.10;10.82;;;;;;;;;;5058852;28;20053;-83
2021/11/14 00:35:03;;;;;;;16.85;10.90;;;;;;;;;;5056968;28;20103;-83
2021/11/14 00:37:32;;;;;;;20.23;11.48;;;;;;;;;;5056918;28;20074;-83
2021/11/14 00:39:59;;;;;;;21.52;11.75;;;;;;;;;;5056739;28;20056;-83
2021/11/14 00:42:27;;;;;;;21.67;12.65;;;;;;;;;;5057076;28;20053;-82
2021/11/14 00:44:54;;;;;;;19.77;11.18;;;;;;;;;;5056924;28;20045;-82
2021/11/14 00:47:21;;;;;;;18.27;10.95;;;;;;;;;;5057871;28;20052;-82
2021/11/14 00:49:48;;;;;;;17.05;10.68;;;;;;;;;;5058888;28;20041;-82
2021/11/14 00:52:15;;;;;;;18.55;10.65;;;;;;;;;;5057329;28;20049;-83
2021/11/14 00:54:42;;;;;;;17.35;10.32;;;;;;;;;;5056314;28;20053;-83
2021/11/14 00:57:09;;;;;;;19.83;10.13;;;;;;;;;;5056832;28;20045;-83
2021/11/14 00:59:37;;;;;;;19.17;10.88;;;;;;;;;;5056970;28;20052;-83
2021/11/14 01:02:04;;;;;;;18.23;10.15;;;;;;;;;;5059906;28;20053;-82
2021/11/14 01:04:31;;;;;;;16.38;9.32;;;;;;;;;;5061502;28;20143;-83
2021/11/14 01:06:58;;;;;;;17.50;9.60;;;;;;;;;;5061250;28;20048;-83
2021/11/14 01:09:25;;;;;;;16.50;9.35;;;;;;;;;;5061267;28;20045;-83
2021/11/14 01:11:53;;;;;;;20.05;10.80;;;;;;;;;;5060962;28;20587;-83
2021/11/14 01:14:20;;;;;;;19.15;11.75;;;;;;;;;;5059947;28;20049;-82
2021/11/14 01:16:48;;;;;;;19.17;10.52;;;;;;;;;;5057760;28;20049;-84
2021/11/14 01:19:15;;;;;;;18.55;11.55;;;;;;;;;;5057461;28;20503;-84
2021/11/14 01:21:46;;;;;;;18.42;11.05;;;;;;;;;;5057653;28;20055;-82
2021/11/14 01:24:13;;;;;;;14.65;10.25;;;;;;;;;;5058809;28;20049;-83
2021/11/14 01:26:40;;;;;;;22.17;11.57;;;;;;;;;;5057560;28;20049;-82
2021/11/14 01:29:07;;;;;;;16.33;9.23;;;;;;;;;;5057259;28;20044;-82
2021/11/14 01:31:34;;;;;;;16.55;10.60;;;;;;;;;;5057292;28;20048;-84
2021/11/14 01:34:03;;;;;;;16.60;10.60;;;;;;;;;;5056470;28;20048;-82
2021/11/14 01:36:33;;;;;;;19.83;10.00;;;;;;;;;;5057668;28;20052;-82
2021/11/14 01:39:00;;;;;;;15.68;9.27;;;;;;;;;;5057930;28;20041;-82
2021/11/14 01:41:28;;;;;;;19.38;10.50;;;;;;;;;;5057209;28;20454;-83
2021/11/14 01:43:55;;;;;;;17.88;10.90;;;;;;;;;;5056572;28;20053;-82
2021/11/14 01:46:22;;;;;;;17.13;9.43;;;;;;;;;;5056816;28;20053;-83
2021/11/14 01:48:51;;;;;;;17.10;9.57;;;;;;;;;;5057578;28;20140;-83
2021/11/14 01:51:19;;;;;;;16.45;9.43;;;;;;;;;;5056300;28;20419;-84
2021/11/14 01:53:46;;;;;;;16.40;9.30;;;;;;;;;;5056882;28;20451;-82
2021/11/14 01:56:15;;;;;;;16.58;10.00;;;;;;;;;;5057456;28;20057;-83
2021/11/14 01:58:43;;;;;;;17.27;9.98;;;;;;;;;;5057960;28;20048;-82
2021/11/14 02:01:14;;;;;;;17.75;9.80;;;;;;;;;;5060290;28;20056;-83
2021/11/14 02:03:43;;;;;;;15.43;8.88;;;;;;;;;;5061582;28;20720;-82
2021/11/14 02:06:11;;;;;;;17.77;8.40;;;;;;;;;;5061952;28;20053;-83
2021/11/14 02:08:43;;;;;;;15.80;9.90;;;;;;;;;;5059110;28;20053;-82
2021/11/14 02:11:14;;;;;;;13.77;8.70;;;;;;;;;;5057895;28;20159;-83
2021/11/14 02:13:41;;;;;;;14.70;8.48;;;;;;;;;;5062537;28;20215;-84
2021/11/14 02:16:08;;;;;;;17.75;10.20;;;;;;;;;;5062402;28;20061;-82
2021/11/14 02:18:35;;;;;;;21.23;11.55;;;;;;;;;;5073911;28;20072;-82
2021/11/14 02:21:04;;;;;;;17.23;9.63;;;;;;;;;;5069531;28;20048;-83
2021/11/14 02:23:31;;;;;;;17.75;10.98;;;;;;;;;;5062710;28;20045;-84
2021/11/14 02:25:58;;;;;;;18.98;10.23;;;;;;;;;;5075310;28;20032;-83
2021/11/14 02:28:26;;;;;;;17.40;10.00;;;;;;;;;;5079091;28;20032;-83
2021/11/14 02:30:55;;;;;;;19.15;9.57;;;;;;;;;;5078384;28;20049;-84
2021/11/14 02:33:23;;;;;;;18.65;10.57;;;;;;;;;;5069879;28;20048;-83
2021/11/14 02:35:52;;;;;;;17.10;9.13;;;;;;;;;;5060803;28;20424;-82
2021/11/14 02:38:21;;;;;;;16.58;9.70;;;;;;;;;;5060257;28;20048;-84
2021/11/14 02:40:49;;;;;;;19.42;11.05;;;;;;;;;;5057874;28;20091;-84
2021/11/14 02:43:17;;;;;;;16.02;9.13;;;;;;;;;;5056635;28;20092;-84
2021/11/14 02:45:45;;;;;;;16.42;9.70;;;;;;;;;;5056701;28;20053;-84
2021/11/14 02:48:13;;;;;;;16.80;9.80;;;;;;;;;;5056399;28;20048;-82
2021/11/14 02:50:40;;;;;;;17.40;9.82;;;;;;;;;;5057685;28;20049;-83
2021/11/14 02:53:09;;;;;;;17.45;11.00;;;;;;;;;;5057140;28;20491;-84
2021/11/14 02:55:39;;;;;;;17.60;10.77;;;;;;;;;;5056150;28;20434;-83
2021/11/14 02:58:06;;;;;;;18.33;10.75;;;;;;;;;;5064607;28;20045;-82
2021/11/14 03:00:37;;;;;;;17.70;11.15;;;;;;;;;;5070885;28;20045;-83
2021/11/14 03:03:04;;;;;;;;;;;;;;;;;;5069874;28;20048;-82
2021/11/14 03:05:31;;;;;;;17.65;9.68;;;;;;;;;;5070234;28;20317;-82
2021/11/14 03:07:58;;;;;;;18.17;11.20;;;;;;;;;;5069772;28;20482;-84
2021/11/14 03:10:27;;;;;;;17.50;11.20;;;;;;;;;;5060680;28;20059;-84
2021/11/14 03:13:01;;;;;;;15.18;9.82;;;;;;;;;;5062926;28;20049;-83
2021/11/14 03:15:31;;;;;;;18.80;10.65;;;;;;;;;;5062645;28;20392;-83
2021/11/14 03:17:59;;;;;;;18.38;10.85;;;;;;;;;;5060302;28;20108;-83
2021/11/14 03:20:26;;;;;;;20.05;10.75;;;;;;;;;;5059877;28;20057;-83
2021/11/14 03:22:53;;;;;;;20.13;11.55;;;;;;;;;;5059122;28;20048;-82
2021/11/14 03:25:22;;;;;;;20.85;11.55;;;;;;;;;;5057242;28;20049;-82
2021/11/14 03:27:50;;;;;;;21.65;12.50;;;;;;;;;;5058800;28;20049;-82
2021/11/14 03:30:19;;;;;;;24.00;13.18;;;;;;;;;;5057973;28;20049;-84
2021/11/14 03:32:46;;;;;;;23.35;12.88;;;;;;;;;;5061600;28;20052;-84
2021/11/14 03:35:14;;;;;;;22.23;11.80;;;;;;;;;;5079062;22;20496;-60
2021/11/14 03:37:41;;;;;;;21.83;12.15;;;;;;;;;;5052434;28;20053;-60
2021/11/14 03:40:09;;;;;;;20.50;12.05;;;;;;;;;;5052383;28;20067;-60
2021/11/14 03:42:37;;;;;;;21.83;11.45;;;;;;;;;;5052507;28;20243;-61
2021/11/14 03:45:05;;;;;;;24.45;12.35;;;;;;;;;;5052004;28;20465;-60
2021/11/14 03:47:34;;;;;;;19.20;11.43;;;;;;;;;;5052162;28;20048;-60
2021/11/14 03:50:01;;;;;;;23.48;13.85;;;;;;;;;;5052073;28;20470;-60
2021/11/14 03:52:28;;;;;;;21.00;11.40;;;;;;;;;;5051712;28;20177;-61
2021/11/14 03:54:55;;;;;;;21.35;11.50;;;;;;;;;;5051869;28;20140;-61
2021/11/14 03:57:22;;;;;;;22.77;12.27;;;;;;;;;;5052238;28;20056;-61
2021/11/14 03:59:49;;;;;;;23.73;13.50;;;;;;;;;;5052025;28;20529;-60
2021/11/14 04:02:16;;;;;;;22.15;11.77;;;;;;;;;;5051987;28;20071;-61
2021/11/14 04:04:45;;;;;;;24.58;13.40;;;;;;;;;;5051720;28;20517;-62
2021/11/14 04:07:12;;;;;;;26.45;14.02;;;;;;;;;;5051998;28;20136;-61
2021/11/14 04:09:39;;;;;;;24.98;12.93;;;;;;;;;;5052082;28;20512;-60
2021/11/14 04:12:07;;;;;;;26.52;13.07;;;;;;;;;;5052136;28;20049;-61
2021/11/14 04:14:34;;;;;;;26.15;12.90;;;;;;;;;;5051835;28;20628;-62
2021/11/14 04:17:01;;;;;;;21.65;12.40;;;;;;;;;;5052123;28;20133;-61
2021/11/14 04:19:28;;;;;;;23.75;12.55;;;;;;;;;;5051666;28;20310;-61
2021/11/14 04:21:56;;;;;;;26.02;13.32;;;;;;;;;;5051992;28;20063;-61
2021/11/14 04:24:23;;;;;;;22.88;12.13;;;;;;;;;;5051830;28;20106;-61
2021/11/14 04:26:50;;;;;;;25.00;13.25;;;;;;;;;;5051607;28;20084;-60
2021/11/14 04:29:18;;;;;;;26.95;13.35;;;;;;;;;;5051711;28;20089;-60
2021/11/14 04:31:45;;;;;;;24.77;13.70;;;;;;;;;;5051804;28;20114;-60
2021/11/14 04:34:12;;;;;;;26.95;14.50;;;;;;;;;;5051657;28;20508;-59
2021/11/14 04:36:39;;;;;;;25.75;13.70;;;;;;;;;;5051537;28;20084;-61
2021/11/14 04:39:07;;;;;;;28.38;14.77;;;;;;;;;;5051664;28;20045;-62
2021/11/14 04:41:34;;;;;;;28.73;14.63;;;;;;;;;;5051629;28;20045;-62
2021/11/14 04:44:02;;;;;;;25.02;13.68;;;;;;;;;;5051681;28;20045;-63
2021/11/14 04:46:29;;;;;;;27.70;14.63;;;;;;;;;;5051380;28;20049;-62
2021/11/14 04:48:56;;;;;;;26.48;13.30;;;;;;;;;;5051547;28;20489;-62
2021/11/14 04:51:23;;;;;;;28.17;13.38;;;;;;;;;;5051433;28;20136;-63
2021/11/14 04:53:50;;;;;;;28.05;15.30;;;;;;;;;;5051359;28;20578;-62
2021/11/14 04:56:19;;;;;;;30.45;14.55;;;;;;;;;;5051075;28;20056;-62
2021/11/14 04:58:46;;;;;;;27.38;14.57;;;;;;;;;;5051396;28;20493;-62
2021/11/14 05:01:13;;;;;;;31.95;15.18;;;;;;;;;;5051310;28;20484;-62
2021/11/14 05:03:40;;;;;;;28.27;15.35;;;;;;;;;;5054746;28;20460;-63
2021/11/14 05:06:09;;;;;;;29.13;15.70;;;;;;;;;;5054890;28;20106;-63
2021/11/14 05:08:37;;;;;;;30.48;15.05;;;;;;;;;;5055430;28;20494;-62
2021/11/14 05:11:04;;;;;;;27.67;15.00;;;;;;;;;;5054636;28;20154;-62
2021/11/14 05:13:32;;;;;;;27.20;14.27;;;;;;;;;;5055139;28;20053;-61
2021/11/14 05:15:59;;;;;;;31.15;16.75;;;;;;;;;;5054544;28;20090;-62
2021/11/14 05:18:27;;;;;;;29.27;15.30;;;;;;;;;;5054979;28;20486;-62
2021/11/14 05:20:54;;;;;;;32.08;16.17;;;;;;;;;;5054781;28;20466;-61
2021/11/14 05:23:21;;;;;;;28.20;15.23;;;;;;;;;;5054744;28;20052;-62
2021/11/14 05:25:48;;;;;;;25.10;13.95;;;;;;;;;;5054540;28;20124;-62
2021/11/14 05:28:16;;;;;;;31.85;16.30;;;;;;;;;;5054625;28;20084;-64
2021/11/14 05:30:44;;;;;;;30.27;16.35;;;;;;;;;;5054822;28;20045;-62
2021/11/14 05:33:12;;;;;;;29.63;15.43;;;;;;;;;;5054693;28;20079;-62
2021/11/14 05:35:39;;;;;;;33.03;17.23;;;;;;;;;;5054099;28;20486;-62
2021/11/14 05:38:07;;;;;;;29.92;16.17;;;;;;;;;;5054472;28;20045;-62
2021/11/14 05:40:34;;;;;;;31.58;16.83;;;;;;;;;;5054178;28;20087;-63
2021/11/14 05:43:01;;;;;;;29.40;15.55;;;;;;;;;;5054684;28;20128;-63
2021/11/14 05:45:28;;;;;;;32.10;16.48;;;;;;;;;;5054014;28;20049;-62
2021/11/14 05:47:57;;;;;;;33.05;18.05;;;;;;;;;;5054312;28;20049;-62
2021/11/14 05:50:25;;;;;;;32.00;17.10;;;;;;;;;;5053975;28;20135;-62
2021/11/14 05:52:52;;;;;;;37.17;18.45;;;;;;;;;;5054178;28;20131;-62
2021/11/14 05:55:20;;;;;;;35.90;18.52;;;;;;;;;;5053929;28;20132;-62
2021/11/14 05:57:54;;;;;;;38.13;20.08;;;;;;;;;;5054081;28;20068;-63
2021/11/14 06:00:27;;;;;;;35.20;18.95;;;;;;;;;;5054084;28;20080;-62
2021/11/14 06:02:58;;;;;;;37.22;18.17;;;;;;;;;;5053910;28;20048;-63
2021/11/14 06:05:28;;;;;;;30.55;17.65;;;;;;;;;;5053612;28;20143;-62
2021/11/14 06:07:56;;;;;;;40.40;19.42;;;;;;;;;;5054251;28;20080;-63
2021/11/14 06:10:23;;;;;;;36.15;19.88;;;;;;;;;;5053634;28;20084;-63
2021/11/14 06:12:50;;;;;;;41.40;20.92;;;;;;;;;;5053732;28;20095;-63
2021/11/14 06:15:22;;;;;;;36.92;20.00;;;;;;;;;;5052690;28;20131;-63
2021/11/14 06:17:49;;;;;;;41.00;22.73;;;;;;;;;;5053870;28;20052;-62
2021/11/14 06:20:17;;;;;;;38.67;20.08;;;;;;;;;;5053585;28;20049;-61
2021/11/14 06:22:46;;;;;;;36.95;19.67;;;;;;;;;;5053524;28;20549;-63
2021/11/14 06:25:13;;;;;;;38.58;19.98;;;;;;;;;;5053126;28;20118;-61
2021/11/14 06:27:40;;;;;;;34.88;19.00;;;;;;;;;;5053557;28;20131;-62
2021/11/14 06:30:10;;;;;;;36.47;20.45;;;;;;;;;;5053456;28;20059;-62
2021/11/14 06:32:37;;;;;;;33.50;18.63;;;;;;;;;;5053380;28;20088;-62
2021/11/14 06:35:05;;;;;;;43.55;21.15;;;;;;;;;;5053040;28;20052;-62
2021/11/14 06:37:32;;;;;;;36.47;20.00;;;;;;;;;;5053338;28;20059;-63
2021/11/14 06:40:01;;;;;;;33.17;18.48;;;;;;;;;;5053011;28;20128;-61
2021/11/14 06:42:28;;;;;;;32.53;18.58;;;;;;;;;;5053198;28;20051;-63
2021/11/14 06:44:55;;;;;;;37.00;19.38;;;;;;;;;;5053109;28;20132;-62
2021/11/14 06:47:22;;;;;;;37.42;19.45;;;;;;;;;;5053109;28;20056;-61
2021/11/14 06:49:52;;;;;;;36.95;20.25;;;;;;;;;;5053215;28;20509;-62
2021/11/14 06:52:19;;;;;;;33.80;19.55;;;;;;;;;;5053293;28;20092;-60
2021/11/14 06:54:47;;;;;;;37.92;19.67;;;;;;;;;;5052761;28;20045;-63
2021/11/14 06:57:15;;;;;;;38.70;20.33;;;;;;;;;;5052979;28;20559;-63
2021/11/14 06:59:42;;;;;;;54.63;24.17;;;;;;;;;;5053106;28;20091;-63
2021/11/14 07:02:10;;;;;;;39.35;22.73;;;;;;;;;;5052815;28;20049;-63
2021/11/14 07:04:38;;;;;;;41.03;23.08;;;;;;;;;;5052736;28;20059;-61
2021/11/14 07:07:06;;;;;;;43.47;24.45;;;;;;;;;;5052845;28;20049;-63
2021/11/14 07:09:33;;;;;;;45.00;22.98;;;;;;;;;;5052879;28;20494;-63
2021/11/14 07:12:00;;;;;;;49.22;23.05;;;;;;;;;;5052600;28;20099;-63
2021/11/14 07:14:29;;;;;;;45.22;23.52;;;;;;;;;;5052740;28;20080;-63
2021/11/14 07:16:57;;;;;;;44.15;23.17;;;;;;;;;;5052558;28;20487;-61
2021/11/14 07:19:24;;;;;;;45.65;22.85;;;;;;;;;;5052724;28;20072;-62
2021/11/14 07:21:52;;;;;;;45.17;21.88;;;;;;;;;;5052594;28;20053;-61
2021/11/14 07:24:19;;;;;;;45.50;23.90;;;;;;;;;;5052260;28;20081;-62
2021/11/14 07:26:46;;;;;;;44.88;20.73;;;;;;;;;;5052392;28;20123;-62
2021/11/14 07:29:13;;;;;;;43.63;22.70;;;;;;;;;;5052481;28;20132;-62
2021/11/14 07:31:41;;;;;;;45.20;22.70;;;;;;;;;;5052548;28;20055;-63
2021/11/14 07:34:09;;;;;;;40.60;21.67;;;;;;;;;;5052402;28;20480;-63
2021/11/14 07:36:36;;;;;;;45.83;23.35;;;;;;;;;;5052003;28;20093;-62
2021/11/14 07:39:03;;;;;;;42.70;21.27;;;;;;;;;;5051905;28;20059;-62
2021/11/14 07:41:30;;;;;;;41.58;19.90;;;;;;;;;;5051812;28;20091;-62
2021/11/14 07:43:57;;;;;;;49.85;25.25;;;;;;;;;;5051970;28;20049;-62
2021/11/14 07:46:24;;;;;;;50.50;24.17;;;;;;;;;;5051734;28;20147;-63
2021/11/14 07:48:53;;;;;;;50.95;23.42;;;;;;;;;;5052082;28;20059;-63
2021/11/14 07:51:20;;;;;;;54.03;25.45;;;;;;;;;;5051749;28;20516;-63
2021/11/14 07:53:47;;;;;;;54.70;26.02;;;;;;;;;;5051940;28;20487;-62
2021/11/14 07:56:14;;;;;;;53.85;26.00;;;;;;;;;;5051991;28;20051;-62
2021/11/14 07:58:41;;;;;;;54.97;26.38;;;;;;;;;;5052028;28;20496;-62
2021/11/14 08:01:08;;;;;;;50.47;23.42;;;;;;;;;;5051980;28;20071;-62
2021/11/14 08:03:36;;;;;;;58.17;25.95;;;;;;;;;;5051915;28;20055;-62
2021/11/14 08:06:06;;;;;;;55.35;26.42;;;;;;;;;;5051401;28;20060;-62
2021/11/14 08:08:34;;;;;;;57.53;27.58;;;;;;;;;;5052093;28;20454;-63
2021/11/14 08:11:01;;;;;;;60.72;28.50;;;;;;;;;;5051538;28;20178;-61
2021/11/14 08:13:28;;;;;;;61.92;28.80;;;;;;;;;;5051794;28;20520;-63
2021/11/14 08:15:55;;;;;;;53.05;25.52;;;;;;;;;;5051288;28;20051;-63
2021/11/14 08:18:22;;;;;;;56.95;25.65;;;;;;;;;;5051529;28;20051;-63
2021/11/14 08:20:50;;;;;;;55.25;25.92;;;;;;;;;;5051402;28;20056;-62
2021/11/14 08:23:20;;;;;;;57.65;27.75;;;;;;;;;;5051922;28;20456;-63
2021/11/14 08:25:48;;;;;;;60.53;27.38;;;;;;;;;;5051373;28;20112;-63
2021/11/14 08:28:15;;;;;;;64.95;28.90;;;;;;;;;;5051551;28;20470;-63
2021/11/14 08:30:43;;;;;;;74.97;32.55;;;;;;;;;;5051551;28;20154;-62
2021/11/14 08:33:11;;;;;;;56.03;27.10;;;;;;;;;;5051397;28;20095;-63
2021/11/14 08:35:40;;;;;;;65.95;30.80;;;;;;;;;;5051661;28;20592;-62
2021/11/14 08:38:07;;;;;;;58.58;27.33;;;;;;;;;;5054225;28;20060;-63
2021/11/14 08:40:38;;;;;;;64.13;27.13;;;;;;;;;;5055537;28;20045;-63
2021/11/14 08:43:06;;;;;;;61.08;26.30;;;;;;;;;;5055386;28;20144;-61
2021/11/14 08:45:34;;;;;;;63.10;27.63;;;;;;;;;;5055111;28;20065;-62
2021/11/14 08:48:02;;;;;;;62.42;27.73;;;;;;;;;;5055465;28;20049;-62
2021/11/14 08:50:31;;;;;;;64.13;27.27;;;;;;;;;;5055525;28;20053;-62
2021/11/14 08:52:58;;;;;;;59.10;26.95;;;;;;;;;;5055417;28;20565;-63
2021/11/14 08:55:26;;;;;;;55.20;25.60;;;;;;;;;;5055192;28;20573;-62
2021/11/14 08:57:57;;;;;;;52.35;24.65;;;;;;;;;;5055202;28;20413;-63
2021/11/14 09:00:26;;;;;;;51.85;24.48;;;;;;;;;;5055523;28;20554;-63
2021/11/14 09:02:55;;;;;;;74.20;32.75;;;;;;;;;;5055090;28;20049;-62
2021/11/14 09:05:24;;;;;;;59.65;26.73;;;;;;;;;;5054998;28;20049;-61
2021/11/14 09:07:52;;;;;;;53.70;25.15;;;;;;;;;;5055036;28;20049;-62
2021/11/14 09:10:19;;;;;;;50.25;23.58;;;;;;;;;;5055265;28;20053;-62
2021/11/14 09:12:47;;;;;;;48.88;24.42;;;;;;;;;;5054798;28;20609;-62
2021/11/14 09:15:15;;;;;;;59.08;24.23;;;;;;;;;;5054725;28;20140;-62
2021/11/14 09:17:42;;;;;;;49.97;23.00;;;;;;;;;;5055016;28;20151;-63
2021/11/14 09:20:10;;;;;;;49.72;22.95;;;;;;;;;;5054808;28;20053;-63
2021/11/14 09:22:38;;;;;;;47.40;21.52;;;;;;;;;;5054662;28;20075;-63
2021/11/14 09:25:06;;;;;;;46.78;21.40;;;;;;;;;;5054561;28;20051;-63
2021/11/14 09:27:33;;;;;;;50.00;22.02;;;;;;;;;;5055083;28;20265;-63
2021/11/14 09:30:01;;;;;;;42.05;21.83;;;;;;;;;;5054983;28;20041;-62
2021/11/14 09:32:30;;;;;;;48.65;21.67;;;;;;;;;;5054871;28;20049;-62
2021/11/14 09:34:57;;;;;;;48.20;22.20;;;;;;;;;;5078118;22;20315;-83
2021/11/14 09:37:25;;;;;;;41.10;20.23;;;;;;;;;;5060149;28;20049;-81
2021/11/14 09:39:55;;;;;;;48.80;22.02;;;;;;;;;;5061375;28;20060;-82
2021/11/14 09:42:30;;;;;;;43.25;20.13;;;;;;;;;;5063145;28;20049;-82
2021/11/14 09:45:00;;;;;;;48.25;21.33;;;;;;;;;;5061146;28;20091;-82
2021/11/14 09:47:27;;;;;;;49.78;22.30;;;;;;;;;;5060902;28;20084;-82
2021/11/14 09:49:58;;;;;;;44.10;21.52;;;;;;;;;;5058916;28;20057;-82
2021/11/14 09:52:28;;;;;;;44.35;20.83;;;;;;;;;;5062003;28;20151;-81
2021/11/14 09:54:58;;;;;;;44.42;20.05;;;;;;;;;;5061564;28;20270;-84
2021/11/14 09:57:28;;;;;;;47.10;22.00;;;;;;;;;;5061284;28;20045;-82
2021/11/14 09:59:55;;;;;;;49.58;22.40;;;;;;;;;;5058732;28;20064;-84
2021/11/14 10:02:24;;;;;;;47.55;20.75;;;;;;;;;;5058211;28;20056;-84
2021/11/14 10:04:51;;;;;;;42.88;20.08;;;;;;;;;;5058120;28;20069;-85
2021/11/14 10:07:19;;;;;;;41.25;19.10;;;;;;;;;;5059208;28;20048;-85
2021/11/14 10:09:55;;;;;;;38.10;19.05;;;;;;;;;;5061632;28;20045;-82
2021/11/14 10:12:23;;;;;;;40.80;17.73;;;;;;;;;;5069313;28;20275;-85
2021/11/14 10:15:07;;;;;;;41.47;17.30;;;;;;;;;;5078817;28;20037;-82
2021/11/14 10:17:38;;;;;;;38.58;18.90;;;;;;;;;;5078703;28;20048;-84
2021/11/14 10:20:13;;;;;;;43.90;19.38;;;;;;;;;;5076777;28;20049;-84
2021/11/14 10:22:44;;;;;;;42.70;18.00;;;;;;;;;;5062514;28;20076;-83
2021/11/14 10:25:31;;;;;;;45.45;20.27;;;;;;;;;;5062825;28;20053;-83
2021/11/14 10:28:03;;;;;;;46.17;20.85;;;;;;;;;;5061001;28;20052;-84
2021/11/14 10:30:34;;;;;;;39.97;16.42;;;;;;;;;;5061109;28;20481;-84
2021/11/14 10:33:09;;;;;;;45.33;18.52;;;;;;;;;;5061096;28;20083;-82
2021/11/14 10:35:37;;;;;;;44.63;18.92;;;;;;;;;;5061246;28;20106;-82
2021/11/14 10:38:08;;;;;;;42.33;17.67;;;;;;;;;;5063130;28;20491;-82
2021/11/14 10:40:44;;;;;;;37.55;17.60;;;;;;;;;;5059472;28;20103;-84
2021/11/14 10:43:22;;;;;;;38.65;17.05;;;;;;;;;;5060500;28;20060;-82
2021/11/14 10:45:54;;;;;;;47.28;19.20;;;;;;;;;;5060471;28;20048;-84
2021/11/14 10:48:23;;;;;;;41.60;16.80;;;;;;;;;;5062661;28;20079;-83
2021/11/14 10:50:54;;;;;;;38.97;17.98;;;;;;;;;;5071650;28;20089;-84
2021/11/14 10:53:24;;;;;;;45.30;19.20;;;;;;;;;;5072215;28;20049;-83
2021/11/14 10:55:55;;;;;;;38.70;15.13;;;;;;;;;;5070395;28;20053;-80
2021/11/14 10:58:23;;;;;;;38.33;18.52;;;;;;;;;;5071011;28;20045;-84
2021/11/14 11:00:53;;;;;;;39.85;17.17;;;;;;;;;;5073004;28;20075;-82
2021/11/14 11:03:20;;;;;;;43.33;17.87;;;;;;;;;;5072370;28;20049;-83
2021/11/14 11:05:50;;;;;;;46.72;20.55;;;;;;;;;;5066190;28;20474;-82
2021/11/14 11:08:21;;;;;;;42.03;17.35;;;;;;;;;;5060859;28;20081;-82
2021/11/14 11:10:55;;;;;;;46.92;18.20;;;;;;;;;;5062569;28;20049;-83
2021/11/14 11:13:33;;;;;;;40.65;18.55;;;;;;;;;;5062459;28;20064;-82
2021/11/14 11:16:05;;;;;;;33.70;15.52;;;;;;;;;;5060579;28;20072;-82
2021/11/14 11:18:33;;;;;;;36.40;15.65;;;;;;;;;;5060130;28;20060;-85
2021/11/14 11:21:03;;;;;;;39.88;16.83;;;;;;;;;;5062854;28;20052;-82
2021/11/14 11:23:40;;;;;;;34.85;16.80;;;;;;;;;;5060753;28;20124;-83
2021/11/14 11:26:10;;;;;;;36.78;16.23;;;;;;;;;;5059374;28;20648;-84
2021/11/14 11:28:42;;;;;;;39.63;17.15;;;;;;;;;;5062026;28;20580;-81
2021/11/14 11:31:11;;;;;;;41.78;18.10;;;;;;;;;;5062768;28;20052;-85
2021/11/14 11:33:42;;;;;;;40.72;17.40;;;;;;;;;;5060569;28;20053;-83
2021/11/14 11:36:11;;;;;;;37.20;17.25;;;;;;;;;;5061347;28;20049;-83
2021/11/14 11:38:43;;;;;;;40.30;19.40;;;;;;;;;;5062835;28;20045;-82
2021/11/14 11:41:13;;;;;;;45.70;20.35;;;;;;;;;;5060780;28;20045;-83
2021/11/14 11:43:41;;;;;;;40.20;18.63;;;;;;;;;;5062600;28;20048;-82
2021/11/14 11:46:13;;;;;;;39.70;18.48;;;;;;;;;;5062717;28;20060;-82
2021/11/14 11:48:50;;;;;;;40.83;18.80;;;;;;;;;;5068579;28;20049;-82
2021/11/14 11:51:20;;;;;;;41.60;17.75;;;;;;;;;;5069314;28;20525;-82
2021/11/14 11:54:02;;;;;;;41.75;18.10;;;;;;;;;;5069780;28;20505;-83
2021/11/14 11:56:40;;;;;;;43.03;18.25;;;;;;;;;;5069244;28;20045;-82
2021/11/14 11:59:12;;;;;;;40.00;18.15;;;;;;;;;;5066979;28;20083;-82
2021/11/14 12:01:51;;;;;;;44.85;20.15;;;;;;;;;;5064914;28;20037;-82
2021/11/14 12:04:23;;;;;;;41.13;17.58;;;;;;;;;;5064218;28;20056;-82
2021/11/14 12:06:59;;;;;;;46.08;20.45;;;;;;;;;;5064247;28;20072;-85
2021/11/14 12:09:38;;;;;;;45.47;17.38;;;;;;;;;;5064319;28;20104;-82
2021/11/14 12:12:23;;;;;;;39.30;16.35;;;;;;;;;;5066034;28;20053;-83
2021/11/14 12:15:14;;;;;;;37.13;17.33;;;;;;;;;;5064469;28;20147;-82
2021/11/14 12:17:52;;;;;;;41.08;17.20;;;;;;;;;;5067792;28;20083;-84
2021/11/14 12:20:30;;;;;;;33.03;14.82;;;;;;;;;;5065805;28;20049;-83
2021/11/14 12:23:02;;;;;;;36.38;17.83;;;;;;;;;;5065138;28;20057;-81
2021/11/14 12:25:33;;;;;;;33.38;15.25;;;;;;;;;;5063264;28;20061;-83
2021/11/14 12:28:05;;;;;;;33.25;13.90;;;;;;;;;;5065356;28;20049;-84
2021/11/14 12:30:39;;;;;;;33.75;15.70;;;;;;;;;;5065007;28;20082;-83
2021/11/14 12:33:10;;;;;;;36.60;15.43;;;;;;;;;;5063958;28;20045;-82
2021/11/14 12:35:46;;;;;;;33.60;14.10;;;;;;;;;;5062225;28;20053;-84
2021/11/14 12:38:17;;;;;;;36.33;15.30;;;;;;;;;;5062526;28;20128;-83
2021/11/14 12:40:47;;;;;;;31.50;13.63;;;;;;;;;;5062702;28;20052;-82
2021/11/14 12:43:18;;;;;;;37.57;16.77;;;;;;;;;;5064840;28;20504;-82
2021/11/14 12:45:52;;;;;;;34.45;15.40;;;;;;;;;;5066530;28;20488;-82
2021/11/14 12:48:22;;;;;;;32.45;13.82;;;;;;;;;;5064673;28;20444;-83
2021/11/14 12:50:50;;;;;;;32.13;14.25;;;;;;;;;;5064711;28;20112;-83
2021/11/14 12:53:20;;;;;;;34.25;14.75;;;;;;;;;;5062634;28;20068;-83
2021/11/14 12:55:50;;;;;;;32.60;14.70;;;;;;;;;;5061861;28;20516;-83
2021/11/14 12:58:21;;;;;;;29.33;14.23;;;;;;;;;;5062492;28;20060;-82
2021/11/14 13:00:55;;;;;;;33.00;13.88;;;;;;;;;;5061138;28;20052;-83
2021/11/14 13:03:25;;;;;;;31.40;13.77;;;;;;;;;;5061177;28;20452;-81
2021/11/14 13:05:54;;;;;;;32.63;15.30;;;;;;;;;;5060822;28;20049;-82
2021/11/14 13:08:23;;;;;;;32.30;14.07;;;;;;;;;;5060263;28;20045;-82
2021/11/14 13:10:53;;;;;;;28.10;13.05;;;;;;;;;;5060677;28;20056;-83
2021/11/14 13:13:33;;;;;;;31.60;13.70;;;;;;;;;;5063439;28;20045;-83
2021/11/14 13:16:02;;;;;;;34.90;16.33;;;;;;;;;;5063738;28;20045;-81
2021/11/14 13:18:33;;;;;;;31.42;13.65;;;;;;;;;;5064612;28;20061;-82
2021/11/14 13:21:11;;;;;;;30.38;14.13;;;;;;;;;;5065060;28;20041;-83
2021/11/14 13:23:41;;;;;;;28.88;13.27;;;;;;;;;;5067224;28;20041;-82
2021/11/14 13:26:14;;;;;;;29.75;13.15;;;;;;;;;;5077179;28;20049;-82
2021/11/14 13:28:43;;;;;;;30.92;14.45;;;;;;;;;;5079893;28;20049;-82
2021/11/14 13:31:18;;;;;;;31.48;14.65;;;;;;;;;;5079629;28;20068;-83
2021/11/14 13:34:09;;;;;;;32.67;14.95;;;;;;;;;;5079243;28;20048;-83
2021/11/14 13:36:50;;;;;;;34.50;15.35;;;;;;;;;;5076035;28;20041;-83
2021/11/14 13:39:31;;;;;;;29.80;14.25;;;;;;;;;;5073228;28;20053;-81
2021/11/14 13:42:02;;;;;;;;;;;;;;;;;;5076130;28;20064;-83
2021/11/14 13:44:33;;;;;;;31.55;14.25;;;;;;;;;;5074368;28;19921;-83
2021/11/14 13:47:01;;;;;;;32.30;14.02;;;;;;;;;;5069320;28;20053;-83
2021/11/14 13:49:33;;;;;;;30.92;13.93;;;;;;;;;;5065645;28;20048;-82
2021/11/14 13:52:04;;;;;;;30.15;14.05;;;;;;;;;;5064865;28;20117;-83
2021/11/14 13:54:31;;;;;;;31.98;14.60;;;;;;;;;;5064126;28;20099;-83
2021/11/14 13:57:03;;;;;;;31.60;14.35;;;;;;;;;;5064743;28;20063;-83
2021/11/14 13:59:31;;;;;;;34.40;15.63;;;;;;;;;;5062888;28;20049;-82
2021/11/14 14:02:02;;;;;;;26.55;13.00;;;;;;;;;;5064350;28;20052;-82
2021/11/14 14:04:32;;;;;;;;;;;;;;;;;;5061378;28;20060;-83
2021/11/14 14:07:03;;;;;;;37.10;20.52;;;;;;;;;;5061222;28;19999;-82
2021/11/14 14:09:32;;;;;;;;;;;;;;;;;;5061961;28;20049;-83
2021/11/14 14:11:59;;;;;;;75.15;48.75;;;;;;;;;;5063101;28;19921;-83
2021/11/14 14:14:28;;;;;;;68.72;34.17;;;;;;;;;;5060062;28;20049;-83
2021/11/14 14:17:03;;;;;;;31.95;15.13;;;;;;;;;;5060154;28;20057;-84
2021/11/14 14:19:30;;;;;;;32.80;14.40;;;;;;;;;;5060474;28;20052;-82
2021/11/14 14:22:01;;;;;;;34.30;15.25;;;;;;;;;;5059532;28;20044;-82
2021/11/14 14:24:42;;;;;;;28.77;14.38;;;;;;;;;;5060987;28;20041;-82
2021/11/14 14:27:18;;;;;;;32.55;14.50;;;;;;;;;;5061255;28;20056;-84
2021/11/14 14:29:55;;;;;;;28.13;13.27;;;;;;;;;;5058399;28;20056;-83